Time;durP1;ratioP1;P1;durP2;ratioP2;P2;SDS_P1;SDS_P2;PMS_P1;PMS_P2;Temp;Humidity;BMP_temperature;BMP_pressure;BME280_temperature;BME280_humidity;BME280_pressure;Samples;Min_cycle;Max_cycle;Signal;HPM_P1;HPM_P2
2023/09/11 00:00:41;;;;;;;11.45;8.88;;;19.10;99.90;;;;;;5014585;28;20183;-88
2023/09/11 00:03:07;;;;;;;11.40;9.35;;;19.10;99.90;;;;;;4997834;28;20232;-88
2023/09/11 00:05:33;;;;;;;10.52;9.18;;;19.10;99.90;;;;;;4998412;28;20187;-89
2023/09/11 00:08:02;;;;;;;8.80;7.90;;;19.00;99.90;;;;;;4998399;28;20257;-87
2023/09/11 00:10:28;;;;;;;11.07;8.73;;;19.00;99.90;;;;;;5006455;28;20282;-88
2023/09/11 00:12:54;;;;;;;10.45;7.95;;;18.90;99.90;;;;;;5018948;28;20250;-88
2023/09/11 00:15:19;;;;;;;11.30;8.75;;;18.90;99.90;;;;;;5025255;28;20297;-87
2023/09/11 00:17:45;;;;;;;9.50;8.48;;;18.90;99.90;;;;;;5015744;28;20205;-88
2023/09/11 00:20:11;;;;;;;9.77;8.77;;;18.90;99.90;;;;;;5018781;28;20188;-88
2023/09/11 00:22:37;;;;;;;10.70;9.57;;;18.90;99.90;;;;;;4998150;28;20715;-88
2023/09/11 00:25:03;;;;;;;10.55;9.45;;;18.90;99.90;;;;;;4998150;28;20191;-88
2023/09/11 00:27:29;;;;;;;10.18;8.90;;;18.90;99.90;;;;;;5023509;28;20268;-88
2023/09/11 00:29:57;;;;;;;10.38;9.27;;;18.90;99.90;;;;;;5020951;28;20191;-89
2023/09/11 00:32:23;;;;;;;9.60;8.60;;;18.90;99.90;;;;;;5013549;28;20187;-89
2023/09/11 00:34:49;;;;;;;10.25;8.80;;;18.90;99.90;;;;;;5014411;28;20265;-89
2023/09/11 00:37:15;;;;;;;9.73;8.77;;;19.00;99.90;;;;;;5021892;28;20672;-88
2023/09/11 00:39:41;;;;;;;12.20;9.43;;;19.00;99.90;;;;;;5014157;28;20176;-89
2023/09/11 00:42:06;;;;;;;11.40;9.43;;;19.00;99.90;;;;;;4997365;28;20199;-89
2023/09/11 00:44:32;;;;;;;9.75;8.75;;;19.10;99.90;;;;;;5021995;28;20206;-88
2023/09/11 00:46:58;;;;;;;10.18;8.57;;;19.10;99.90;;;;;;4996603;28;20203;-88
2023/09/11 00:49:24;;;;;;;11.07;9.02;;;19.10;99.90;;;;;;5014019;28;20183;-86
2023/09/11 00:51:51;;;;;;;9.50;8.52;;;19.10;99.90;;;;;;5013615;28;20179;-86
2023/09/11 00:54:19;;;;;;;9.88;8.85;;;19.10;99.90;;;;;;5014502;28;20214;-86
2023/09/11 00:56:49;;;;;;;11.75;9.63;;;19.10;99.90;;;;;;5014013;28;20176;-86
2023/09/11 00:59:17;;;;;;;11.05;9.15;;;19.00;99.90;;;;;;5000816;28;20213;-86
2023/09/11 01:01:44;;;;;;;11.20;9.13;;;19.00;99.90;;;;;;5004247;28;20215;-86
2023/09/11 01:04:11;;;;;;;10.15;8.90;;;19.00;99.90;;;;;;5013626;28;20207;-86
2023/09/11 01:06:37;;;;;;;11.13;9.45;;;19.00;99.90;;;;;;5013180;28;20180;-86
2023/09/11 01:09:03;;;;;;;9.88;8.88;;;18.90;99.90;;;;;;5013960;28;20179;-86
2023/09/11 01:11:29;;;;;;;8.73;7.93;;;19.00;99.90;;;;;;5013249;28;20179;-86
2023/09/11 01:13:57;;;;;;;11.55;9.30;;;19.00;99.90;;;;;;5026697;28;20170;-85
2023/09/11 01:16:35;;;;;;;11.02;10.00;;;18.90;99.90;;;;;;5002933;28;20257;-85
2023/09/11 01:19:06;;;;;;;11.23;9.77;;;18.90;99.90;;;;;;5018998;23;20219;-41
2023/09/11 01:22:01;;;;;;;10.52;9.43;;;18.80;99.90;;;;;;4991117;28;20262;-43
2023/09/11 01:25:10;;;;;;;10.32;9.30;;;18.70;99.90;;;;;;4991999;28;20192;-41
2023/09/11 01:27:45;;;;;;;12.27;9.50;;;18.60;99.90;;;;;;4976139;28;20275;-43
2023/09/11 01:30:12;;;;;;;10.30;9.23;;;18.60;99.90;;;;;;4982411;28;20237;-43
2023/09/11 01:35:12;;;;;;;10.45;9.32;;;18.50;99.90;;;;;;4986271;28;20346;-29
2023/09/11 01:37:38;;;;;;;10.45;9.35;;;18.50;99.90;;;;;;4948863;28;20271;-28
2023/09/11 01:40:05;;;;;;;10.10;9.10;;;18.50;99.90;;;;;;4968494;28;20184;-29
2023/09/11 01:42:40;;;;;;;11.82;10.20;;;18.40;99.90;;;;;;4957585;28;20192;-29
2023/09/11 01:45:08;;;;;;;10.70;8.95;;;18.40;99.90;;;;;;4964758;28;20215;-29
2023/09/11 01:47:34;;;;;;;10.93;9.80;;;18.30;99.90;;;;;;4955957;28;20181;-29
2023/09/11 01:50:01;;;;;;;10.48;9.32;;;18.30;99.90;;;;;;4970038;28;20211;-29
2023/09/11 01:52:29;;;;;;;11.98;8.63;;;18.30;99.90;;;;;;4952683;28;20209;-29
2023/09/11 01:54:57;;;;;;;10.63;9.40;;;18.20;99.90;;;;;;4965045;28;20185;-29
2023/09/11 01:57:27;;;;;;;10.68;9.68;;;18.20;99.90;;;;;;4970112;28;20189;-29
2023/09/11 01:59:53;;;;;;;11.65;9.38;;;18.20;99.90;;;;;;4950469;28;20173;-29
2023/09/11 02:02:19;;;;;;;9.45;8.43;;;18.10;99.90;;;;;;4945522;28;20211;-28
2023/09/11 02:04:45;;;;;;;9.98;9.07;;;18.10;99.90;;;;;;4970591;28;20212;-28
2023/09/11 02:07:11;;;;;;;11.40;9.52;;;18.00;99.90;;;;;;4971269;28;20275;-28
2023/09/11 02:09:37;;;;;;;11.60;10.02;;;18.00;99.90;;;;;;4954593;28;20188;-29
2023/09/11 02:12:03;;;;;;;10.48;9.38;;;17.90;99.90;;;;;;4954427;28;20248;-29
2023/09/11 02:14:28;;;;;;;11.82;9.65;;;18.00;99.90;;;;;;4966823;28;20245;-31
2023/09/11 02:17:00;;;;;;;10.93;9.82;;;18.00;99.90;;;;;;4959555;28;20238;-29
2023/09/11 02:19:26;;;;;;;10.65;9.63;;;18.00;99.90;;;;;;4950117;28;20187;-29
2023/09/11 02:21:52;;;;;;;10.02;8.88;;;18.00;99.90;;;;;;4985953;28;20200;-28
2023/09/11 02:24:19;;;;;;;10.30;9.30;;;18.10;99.90;;;;;;4948258;28;20222;-29
2023/09/11 02:26:45;;;;;;;10.18;9.10;;;18.00;99.90;;;;;;4971180;28;20718;-29
2023/09/11 02:29:10;;;;;;;12.73;9.43;;;18.00;99.90;;;;;;4977856;28;20184;-29
2023/09/11 02:31:36;;;;;;;9.73;8.75;;;17.90;99.90;;;;;;4960197;28;20203;-29
2023/09/11 02:34:02;;;;;;;9.98;8.88;;;17.90;99.90;;;;;;4968037;28;20188;-30
2023/09/11 02:36:28;;;;;;;11.00;9.10;;;17.90;99.90;;;;;;4954708;28;20188;-29
2023/09/11 02:38:54;;;;;;;11.40;9.43;;;17.80;99.90;;;;;;4973696;28;20191;-29
2023/09/11 02:41:19;;;;;;;12.48;9.90;;;17.80;99.90;;;;;;4963830;28;20208;-30
2023/09/11 02:43:45;;;;;;;10.77;9.63;;;17.80;99.90;;;;;;4953593;28;20189;-28
2023/09/11 02:46:11;;;;;;;10.52;9.20;;;17.80;99.90;;;;;;4968963;28;20713;-28
2023/09/11 02:48:46;;;;;;;11.18;9.38;;;17.80;99.90;;;;;;4967299;28;20209;-28
2023/09/11 02:51:13;;;;;;;9.38;8.48;;;17.70;99.90;;;;;;4978413;28;20291;-29
2023/09/11 02:53:38;;;;;;;10.10;9.10;;;17.80;99.90;;;;;;4959162;28;20185;-28
2023/09/11 02:56:04;;;;;;;10.30;9.25;;;17.80;99.90;;;;;;4953822;28;20191;-29
2023/09/11 02:58:31;;;;;;;13.65;9.82;;;17.80;99.90;;;;;;4967276;28;20223;-29
2023/09/11 03:01:06;;;;;;;10.65;8.98;;;17.80;99.90;;;;;;4966368;28;20228;-29
2023/09/11 03:03:32;;;;;;;10.90;9.20;;;17.80;99.90;;;;;;4964497;28;20177;-29
2023/09/11 03:06:00;;;;;;;10.20;9.05;;;17.80;99.90;;;;;;4963997;28;20264;-28
2023/09/11 03:08:26;;;;;;;10.48;9.45;;;17.80;99.90;;;;;;4951455;28;20215;-29
2023/09/11 03:11:07;;;;;;;9.75;8.48;;;17.70;99.90;;;;;;4977658;28;20235;-28
2023/09/11 03:13:34;;;;;;;10.60;9.50;;;17.70;99.90;;;;;;4948825;28;20185;-29
2023/09/11 03:16:10;;;;;;;10.18;9.10;;;17.70;99.90;;;;;;4964021;28;20181;-29
2023/09/11 03:18:37;;;;;;;10.02;9.13;;;17.60;99.90;;;;;;4955537;28;20225;-30
2023/09/11 03:21:03;;;;;;;10.88;8.85;;;17.60;99.90;;;;;;4959775;28;20204;-29
2023/09/11 03:23:30;;;;;;;10.23;9.20;;;17.50;99.90;;;;;;4957473;28;20195;-29
2023/09/11 03:25:56;;;;;;;12.63;9.70;;;17.50;99.90;;;;;;4956674;28;20223;-29
2023/09/11 03:28:25;;;;;;;9.43;8.57;;;17.40;99.90;;;;;;4952275;28;20180;-28
2023/09/11 03:30:52;;;;;;;10.68;9.57;;;17.30;99.90;;;;;;4969500;28;20267;-29
2023/09/11 03:33:18;;;;;;;11.93;9.25;;;17.30;99.90;;;;;;4956635;28;20295;-29
2023/09/11 03:35:46;;;;;;;9.90;8.90;;;17.30;99.90;;;;;;4980610;28;20188;-28
2023/09/11 03:38:13;;;;;;;12.50;9.65;;;17.20;99.90;;;;;;4965628;28;20184;-29
2023/09/11 03:40:39;;;;;;;11.88;10.13;;;17.10;99.90;;;;;;4959289;28;20216;-29
2023/09/11 03:43:05;;;;;;;10.38;9.30;;;17.10;99.90;;;;;;4967742;28;20271;-29
2023/09/11 03:45:31;;;;;;;10.73;9.57;;;17.00;99.90;;;;;;4950976;28;20299;-29
2023/09/11 03:47:57;;;;;;;10.60;9.35;;;17.00;99.90;;;;;;4968643;28;20181;-29
2023/09/11 03:50:22;;;;;;;11.60;9.55;;;16.90;99.90;;;;;;4978132;28;20242;-29
2023/09/11 03:52:48;;;;;;;11.20;9.95;;;16.90;99.90;;;;;;4973178;28;20239;-29
2023/09/11 03:55:14;;;;;;;11.80;9.23;;;16.90;99.90;;;;;;4951501;28;20314;-28
2023/09/11 03:57:40;;;;;;;12.63;10.68;;;16.90;99.90;;;;;;4967746;28;20184;-29
2023/09/11 04:00:10;;;;;;;11.43;10.20;;;16.90;99.90;;;;;;4957161;28;20189;-29
2023/09/11 04:02:38;;;;;;;11.75;10.38;;;16.80;99.90;;;;;;4966517;28;20217;-29
2023/09/11 04:05:05;;;;;;;12.00;10.15;;;16.90;99.90;;;;;;4951476;28;20288;-29
2023/09/11 04:07:32;;;;;;;11.52;10.00;;;16.90;99.90;;;;;;4954122;28;20198;-28
2023/09/11 04:09:59;;;;;;;10.95;9.85;;;16.80;99.90;;;;;;4956497;28;20184;-29
2023/09/11 04:12:26;;;;;;;12.02;10.57;;;16.80;99.90;;;;;;4965805;28;20279;-28
2023/09/11 04:14:53;;;;;;;11.63;10.38;;;16.80;99.90;;;;;;4952651;28;20196;-29
2023/09/11 04:17:20;;;;;;;11.57;10.48;;;16.90;99.90;;;;;;4950987;28;20244;-29
2023/09/11 04:19:47;;;;;;;14.25;11.43;;;16.90;99.90;;;;;;4952466;28;20177;-28
2023/09/11 04:22:13;;;;;;;13.65;12.32;;;16.80;99.90;;;;;;4953685;28;20239;-29
2023/09/11 04:24:39;;;;;;;14.40;11.23;;;16.80;99.90;;;;;;4955620;28;20240;-30
2023/09/11 04:27:05;;;;;;;12.32;11.13;;;16.80;99.90;;;;;;4953052;28;20181;-29
2023/09/11 04:29:31;;;;;;;12.77;11.13;;;16.80;99.90;;;;;;4956124;28;20177;-30
2023/09/11 04:31:57;;;;;;;11.82;10.63;;;16.80;99.90;;;;;;4957339;28;20200;-28
2023/09/11 04:34:24;;;;;;;11.70;10.50;;;16.80;99.90;;;;;;4953216;28;20197;-28
2023/09/11 04:36:50;;;;;;;11.98;10.70;;;16.90;99.90;;;;;;4975228;28;20211;-28
2023/09/11 04:39:16;;;;;;;11.67;10.00;;;16.90;99.90;;;;;;4972796;28;20204;-28
2023/09/11 04:41:43;;;;;;;11.13;9.95;;;16.90;99.90;;;;;;4948667;28;20275;-29
2023/09/11 04:44:09;;;;;;;12.57;10.48;;;16.80;99.90;;;;;;4952638;28;20172;-28
2023/09/11 04:46:35;;;;;;;13.27;11.77;;;16.80;99.90;;;;;;4970620;28;20218;-28
2023/09/11 04:49:01;;;;;;;11.60;10.40;;;16.70;99.90;;;;;;4956474;28;20246;-30
2023/09/11 04:51:27;;;;;;;12.70;10.13;;;16.60;99.90;;;;;;4965085;28;20730;-29
2023/09/11 04:53:53;;;;;;;11.25;9.95;;;16.70;99.90;;;;;;4960710;28;20185;-29
2023/09/11 04:56:19;;;;;;;13.77;11.13;;;16.70;99.90;;;;;;4952066;28;20189;-28
2023/09/11 04:58:45;;;;;;;12.45;10.65;;;16.60;99.90;;;;;;4960689;28;20212;-28
2023/09/11 05:01:11;;;;;;;12.10;10.88;;;16.60;99.90;;;;;;4975831;28;20252;-29
2023/09/11 05:03:39;;;;;;;14.35;11.73;;;16.60;99.90;;;;;;4962159;28;20177;-28
2023/09/11 05:06:06;;;;;;;13.10;11.47;;;16.60;99.90;;;;;;4976466;28;20271;-29
2023/09/11 05:08:32;;;;;;;13.67;12.27;;;16.60;99.90;;;;;;4976576;28;20234;-29
2023/09/11 05:11:01;;;;;;;12.37;11.07;;;16.50;99.90;;;;;;4968846;28;20238;-29
2023/09/11 05:13:27;;;;;;;12.68;11.38;;;16.50;99.90;;;;;;4955951;28;20219;-29
2023/09/11 05:15:53;;;;;;;12.20;11.00;;;16.50;99.90;;;;;;4957285;28;20227;-29
2023/09/11 05:18:19;;;;;;;15.13;11.73;;;16.40;99.90;;;;;;4964824;28;20272;-29
2023/09/11 05:20:46;;;;;;;16.67;12.18;;;16.40;99.90;;;;;;4973825;28;20181;-28
2023/09/11 05:23:12;;;;;;;13.32;11.88;;;16.40;99.90;;;;;;4965855;28;20187;-29
2023/09/11 05:25:39;;;;;;;16.90;12.07;;;16.50;99.90;;;;;;4956987;28;20212;-29
2023/09/11 05:28:05;;;;;;;13.30;11.57;;;16.50;99.90;;;;;;4965928;28;20184;-28
2023/09/11 05:30:32;;;;;;;12.80;11.55;;;16.60;99.90;;;;;;4969788;28;20181;-28
2023/09/11 05:32:58;;;;;;;17.15;11.48;;;16.60;99.90;;;;;;4966079;28;20200;-29
2023/09/11 05:35:24;;;;;;;13.55;12.07;;;16.70;99.90;;;;;;4960748;28;20255;-28
2023/09/11 05:37:50;;;;;;;13.18;11.38;;;16.70;99.90;;;;;;4956379;28;20192;-28
2023/09/11 05:40:16;;;;;;;13.98;11.95;;;16.80;99.90;;;;;;4967637;28;20264;-29
2023/09/11 05:42:41;;;;;;;13.13;11.75;;;16.80;99.90;;;;;;4954981;28;20209;-29
2023/09/11 05:45:08;;;;;;;15.57;11.60;;;16.90;99.90;;;;;;4962919;28;20216;-29
2023/09/11 05:47:34;;;;;;;14.43;11.98;;;16.90;99.90;;;;;;4952815;28;20226;-29
2023/09/11 05:50:00;;;;;;;15.95;11.80;;;16.90;99.90;;;;;;4980572;28;20189;-29
2023/09/11 05:52:29;;;;;;;14.82;11.98;;;17.00;99.90;;;;;;4970715;28;20686;-29
2023/09/11 05:54:55;;;;;;;12.73;11.43;;;17.10;99.90;;;;;;4972201;28;20226;-29
2023/09/11 05:57:21;;;;;;;14.10;12.60;;;17.10;99.90;;;;;;4960779;28;20183;-29
2023/09/11 05:59:47;;;;;;;16.05;11.73;;;17.20;99.90;;;;;;4967120;28;20185;-29
2023/09/11 06:02:13;;;;;;;16.40;11.80;;;17.20;99.90;;;;;;4975664;28;20216;-28
2023/09/11 06:04:39;;;;;;;16.63;13.63;;;17.30;99.90;;;;;;4972848;28;20225;-29
2023/09/11 06:07:05;;;;;;;13.18;11.88;;;17.40;99.90;;;;;;4962941;28;20220;-29
2023/09/11 06:09:31;;;;;;;12.95;11.18;;;17.50;99.90;;;;;;4955638;28;20192;-29
2023/09/11 06:11:57;;;;;;;13.02;11.63;;;17.70;99.90;;;;;;4955020;28;20220;-28
2023/09/11 06:14:23;;;;;;;14.15;11.73;;;17.80;99.90;;;;;;4968191;28;20199;-29
2023/09/11 06:16:50;;;;;;;13.40;11.23;;;17.90;99.90;;;;;;4955266;28;20196;-29
2023/09/11 06:19:16;;;;;;;13.18;11.80;;;18.00;99.90;;;;;;4969999;28;20188;-29
2023/09/11 06:21:45;;;;;;;14.85;11.00;;;18.00;99.90;;;;;;4955538;28;20215;-28
2023/09/11 06:24:12;;;;;;;14.13;12.05;;;18.10;99.90;;;;;;4961592;28;20262;-29
2023/09/11 06:26:41;;;;;;;12.77;11.57;;;18.20;99.90;;;;;;4962428;28;20217;-29
2023/09/11 06:29:06;;;;;;;12.02;10.82;;;18.40;99.90;;;;;;4983180;28;20184;-29
2023/09/11 06:31:32;;;;;;;13.07;11.77;;;18.50;99.90;;;;;;4970372;28;20200;-28
2023/09/11 06:33:59;;;;;;;12.95;11.48;;;18.50;99.90;;;;;;4956300;28;20203;-29
2023/09/11 06:36:24;;;;;;;12.45;11.23;;;18.60;99.90;;;;;;4986615;28;20262;-30
2023/09/11 06:38:50;;;;;;;12.55;11.23;;;18.70;99.90;;;;;;4981511;28;20203;-29
2023/09/11 06:41:16;;;;;;;12.45;11.02;;;18.80;99.90;;;;;;4971410;28;20288;-29
2023/09/11 06:43:42;;;;;;;12.25;10.98;;;18.90;99.90;;;;;;4963931;28;20238;-29
2023/09/11 06:46:09;;;;;;;12.63;10.82;;;19.00;99.90;;;;;;4950340;28;20204;-29
2023/09/11 06:48:37;;;;;;;12.10;10.75;;;19.10;99.90;;;;;;4969970;28;20195;-29
2023/09/11 06:51:02;;;;;;;14.20;11.02;;;19.20;99.90;;;;;;4949651;28;20216;-29
2023/09/11 06:53:28;;;;;;;12.73;11.13;;;19.30;99.90;;;;;;4953524;28;20181;-29
2023/09/11 06:55:55;;;;;;;11.55;10.43;;;19.40;99.90;;;;;;4954172;28;20188;-29
2023/09/11 06:58:21;;;;;;;11.15;9.98;;;19.50;99.90;;;;;;4951788;28;20233;-29
2023/09/11 07:00:47;;;;;;;11.73;10.48;;;19.60;99.90;;;;;;4954179;28;20286;-29
2023/09/11 07:03:13;;;;;;;13.05;11.15;;;19.70;99.90;;;;;;4950290;28;20188;-29
2023/09/11 07:05:39;;;;;;;14.23;11.30;;;19.70;99.90;;;;;;4953594;28;20223;-29
2023/09/11 07:08:05;;;;;;;13.35;11.18;;;19.80;99.90;;;;;;4969956;28;20189;-29
2023/09/11 07:10:31;;;;;;;14.25;11.82;;;19.90;99.90;;;;;;4968486;28;20184;-29
2023/09/11 07:12:57;;;;;;;14.15;10.25;;;20.00;99.90;;;;;;4967872;28;20215;-29
2023/09/11 07:15:23;;;;;;;11.70;10.60;;;20.10;99.90;;;;;;4952324;28;20200;-29
2023/09/11 07:17:51;;;;;;;15.68;11.57;;;20.20;99.90;;;;;;4967000;28;20196;-29
2023/09/11 07:20:17;;;;;;;12.43;10.63;;;20.30;99.90;;;;;;4968215;28;20197;-30
2023/09/11 07:22:43;;;;;;;11.27;10.10;;;20.30;99.90;;;;;;4953237;28;20278;-29
2023/09/11 07:25:12;;;;;;;12.40;11.20;;;20.40;99.90;;;;;;4973673;28;20282;-29
2023/09/11 07:27:38;;;;;;;12.98;11.45;;;20.40;99.90;;;;;;4960142;28;20193;-29
2023/09/11 07:30:06;;;;;;;12.90;11.02;;;20.50;99.90;;;;;;4966559;28;20185;-30
2023/09/11 07:32:31;;;;;;;12.23;11.07;;;20.60;99.90;;;;;;4960709;28;20215;-29
2023/09/11 07:34:58;;;;;;;13.57;11.50;;;20.60;99.90;;;;;;4985307;23;20236;-32
2023/09/11 07:37:23;;;;;;;12.15;10.90;;;20.70;99.90;;;;;;4973502;28;20318;-33
2023/09/11 07:39:49;;;;;;;12.35;11.13;;;20.70;99.90;;;;;;4972676;28;20275;-32
2023/09/11 07:42:15;;;;;;;11.77;10.60;;;20.80;99.90;;;;;;4978137;28;20179;-32
2023/09/11 07:44:42;;;;;;;12.73;10.52;;;20.90;99.90;;;;;;4945998;28;20259;-33
2023/09/11 07:47:08;;;;;;;13.43;11.07;;;20.90;99.90;;;;;;4943593;28;20192;-32
2023/09/11 07:49:35;;;;;;;11.57;10.50;;;21.00;99.90;;;;;;4964466;28;20188;-32
2023/09/11 07:52:02;;;;;;;12.77;11.50;;;21.10;99.90;;;;;;4948702;28;20184;-32
2023/09/11 07:54:28;;;;;;;12.20;10.90;;;21.30;99.90;;;;;;4962879;28;20230;-32
2023/09/11 07:56:54;;;;;;;12.55;10.65;;;21.30;99.90;;;;;;4948348;28;20180;-33
2023/09/11 07:59:21;;;;;;;13.00;10.57;;;21.40;99.90;;;;;;4967860;28;20184;-33
2023/09/11 08:01:47;;;;;;;11.43;10.23;;;21.50;99.90;;;;;;4967997;28;20177;-33
2023/09/11 08:04:13;;;;;;;12.73;11.07;;;21.60;99.90;;;;;;4967195;28;20227;-33
2023/09/11 08:06:39;;;;;;;12.52;10.88;;;21.60;99.90;;;;;;4950858;28;20212;-33
2023/09/11 08:09:05;;;;;;;11.45;10.35;;;21.70;99.90;;;;;;4952790;28;20203;-33
2023/09/11 08:11:39;;;;;;;12.80;11.35;;;21.80;99.90;;;;;;4967407;28;20230;-32
2023/09/11 08:14:06;;;;;;;16.67;10.93;;;21.90;99.90;;;;;;4968364;28;20272;-34
2023/09/11 08:16:32;;;;;;;13.45;10.23;;;22.00;99.90;;;;;;4952645;28;20710;-33
2023/09/11 08:18:58;;;;;;;12.18;9.60;;;22.10;99.90;;;;;;4964316;28;20192;-33
2023/09/11 08:21:24;;;;;;;10.40;9.15;;;22.30;99.90;;;;;;4975868;28;20188;-34
2023/09/11 08:23:49;;;;;;;10.32;9.32;;;22.40;99.90;;;;;;4958809;28;20208;-32
2023/09/11 08:26:16;;;;;;;11.25;9.50;;;22.50;99.90;;;;;;4975841;28;20214;-34
2023/09/11 08:28:42;;;;;;;12.38;10.25;;;22.60;99.90;;;;;;4957399;28;20189;-34
2023/09/11 08:31:08;;;;;;;12.25;8.82;;;22.80;99.90;;;;;;4948954;28;20235;-34
2023/09/11 08:33:34;;;;;;;13.15;9.65;;;22.90;99.90;;;;;;4971877;28;20215;-34
2023/09/11 08:35:59;;;;;;;10.95;9.63;;;23.10;99.90;;;;;;4959463;28;20180;-34
2023/09/11 08:38:25;;;;;;;14.50;9.70;;;23.20;99.90;;;;;;4960591;28;20187;-35
2023/09/11 08:40:51;;;;;;;11.00;9.35;;;23.30;99.90;;;;;;4961187;28;20199;-33
2023/09/11 08:43:17;;;;;;;10.02;9.13;;;23.50;99.90;;;;;;4947797;28;20212;-34
2023/09/11 08:45:43;;;;;;;12.35;9.50;;;23.60;99.90;;;;;;4971178;28;20262;-33
2023/09/11 08:48:11;;;;;;;9.98;9.00;;;23.70;99.90;;;;;;4992835;28;20642;-34
2023/09/11 08:50:53;;;;;;;11.00;9.90;;;23.90;99.90;;;;;;4978175;28;20179;-33
2023/09/11 08:53:21;;;;;;;10.00;8.60;;;23.90;99.90;;;;;;4975952;28;20239;-34
2023/09/11 08:55:47;;;;;;;9.70;8.90;;;24.10;99.90;;;;;;4955149;28;20223;-35
2023/09/11 08:58:16;;;;;;;10.45;9.30;;;24.30;99.90;;;;;;4951930;28;20263;-34
2023/09/11 09:00:42;;;;;;;9.80;8.90;;;24.40;99.90;;;;;;4987342;28;20188;-34
2023/09/11 09:03:09;;;;;;;10.15;9.15;;;24.60;99.90;;;;;;4948886;28;20243;-34
2023/09/11 09:05:35;;;;;;;9.88;8.88;;;24.80;99.90;;;;;;4970626;28;20670;-33
2023/09/11 09:08:04;;;;;;;10.95;9.43;;;24.90;99.90;;;;;;4949526;28;20192;-32
2023/09/11 09:10:30;;;;;;;10.05;9.05;;;25.10;99.90;;;;;;4962661;28;20207;-33
2023/09/11 09:12:56;;;;;;;9.13;8.20;;;25.20;99.90;;;;;;4951467;28;20247;-33
2023/09/11 09:15:24;;;;;;;10.48;9.45;;;25.40;99.90;;;;;;4981280;28;20195;-34
2023/09/11 09:17:50;;;;;;;9.43;8.43;;;25.50;99.90;;;;;;4943672;28;20192;-35
2023/09/11 09:20:17;;;;;;;10.07;8.70;;;25.70;99.90;;;;;;4951562;28;20184;-34
2023/09/11 09:23:00;;;;;;;9.68;8.80;;;25.90;99.90;;;;;;4958554;28;20191;-34
2023/09/11 09:25:27;;;;;;;10.00;9.10;;;26.00;99.90;;;;;;4985880;28;20216;-32
2023/09/11 09:27:54;;;;;;;11.07;9.98;;;26.20;99.90;;;;;;4952980;28;20274;-31
2023/09/11 09:30:25;;;;;;;10.30;9.40;;;26.30;99.90;;;;;;4990067;28;20180;-32
2023/09/11 09:32:52;;;;;;;10.52;9.48;;;26.30;99.90;;;;;;4950808;28;20187;-31
2023/09/11 09:35:32;;;;;;;10.25;9.07;;;26.40;99.90;;;;;;4960124;28;20207;-33
2023/09/11 09:37:59;;;;;;;11.32;9.23;;;26.40;99.90;;;;;;4951479;28;20269;-32
2023/09/11 09:40:30;;;;;;;9.65;8.77;;;26.60;99.90;;;;;;4956476;28;20195;-33
2023/09/11 09:43:00;;;;;;;9.00;8.10;;;26.70;99.90;;;;;;4959647;28;20192;-32
2023/09/11 09:45:40;;;;;;;10.75;8.60;;;26.80;99.90;;;;;;4968032;28;20216;-33
2023/09/11 09:48:16;;;;;;;9.90;8.90;;;26.90;99.90;;;;;;4959540;28;20180;-32
2023/09/11 09:51:01;;;;;;;8.95;8.15;;;27.00;99.90;;;;;;4975336;28;20188;-33
2023/09/11 09:53:42;;;;;;;8.98;8.25;;;27.20;99.90;;;;;;4968789;28;20275;-32
2023/09/11 09:56:12;;;;;;;9.82;8.32;;;27.20;99.90;;;;;;4966350;28;20191;-32
2023/09/11 09:58:43;;;;;;;9.48;8.60;;;27.30;99.90;;;;;;4971769;28;20227;-32
2023/09/11 10:01:12;;;;;;;9.60;8.70;;;27.50;99.90;;;;;;4945054;28;20189;-33
2023/09/11 10:03:46;;;;;;;9.45;8.43;;;27.70;99.90;;;;;;4969238;28;20322;-32
2023/09/11 10:06:19;;;;;;;9.20;8.30;;;27.90;99.90;;;;;;4958367;28;20297;-32
2023/09/11 10:08:46;;;;;;;9.32;7.95;;;28.10;99.90;;;;;;4957344;28;20173;-32
2023/09/11 10:11:32;;;;;;;13.05;7.82;;;28.20;99.90;;;;;;4958650;28;20208;-32
2023/09/11 10:14:00;;;;;;;9.25;8.25;;;28.40;99.90;;;;;;4957410;28;20303;-32
2023/09/11 10:16:26;;;;;;;9.35;7.50;;;28.40;99.90;;;;;;4962169;28;20184;-33
2023/09/11 10:18:57;;;;;;;9.32;6.72;;;28.40;99.90;;;;;;4942556;28;20188;-32
2023/09/11 10:21:24;;;;;;;9.70;6.72;;;28.60;99.90;;;;;;4974176;28;20192;-33
2023/09/11 10:23:50;;;;;;;8.75;7.38;;;28.70;99.90;;;;;;5002400;28;20207;-33
2023/09/11 10:26:33;;;;;;;7.78;6.68;;;28.80;99.90;;;;;;4965978;28;20211;-32
2023/09/11 10:29:04;;;;;;;9.55;6.90;;;28.90;99.90;;;;;;4973202;28;20187;-32
2023/09/11 10:31:58;;;;;;;10.90;7.97;;;28.90;99.90;;;;;;4960245;28;20191;-33
2023/09/11 10:34:25;;;;;;;8.90;7.95;;;28.90;99.90;;;;;;4973620;28;20230;-32
2023/09/11 10:36:56;;;;;;;10.60;7.10;;;28.90;99.90;;;;;;4977764;28;20295;-32
2023/09/11 10:39:22;;;;;;;8.20;7.43;;;28.90;99.90;;;;;;4950798;28;20194;-32
2023/09/11 10:41:48;;;;;;;7.95;7.13;;;29.10;99.90;;;;;;4987262;28;20188;-32
2023/09/11 10:44:16;;;;;;;7.60;6.80;;;29.20;99.90;;;;;;4973639;28;20215;-32
2023/09/11 10:46:51;;;;;;;9.00;6.82;;;29.40;99.90;;;;;;4964266;28;20216;-33
2023/09/11 10:49:21;;;;;;;8.63;7.03;;;29.40;99.90;;;;;;4954807;28;20188;-32
2023/09/11 10:51:48;;;;;;;8.82;6.97;;;29.40;99.90;;;;;;4962134;28;20211;-32
2023/09/11 10:54:25;;;;;;;9.93;6.95;;;29.50;99.90;;;;;;4966440;28;20199;-32
2023/09/11 10:56:52;;;;;;;7.28;6.40;;;29.60;99.90;;;;;;4953812;28;20299;-33
2023/09/11 10:59:24;;;;;;;7.57;6.53;;;29.70;99.90;;;;;;4957258;28;20180;-33
2023/09/11 11:01:52;;;;;;;7.70;6.47;;;29.90;99.90;;;;;;4971447;28;20180;-33
2023/09/11 11:04:22;;;;;;;9.10;6.68;;;30.00;99.90;;;;;;4962492;28;20215;-32
2023/09/11 11:06:51;;;;;;;7.03;6.30;;;29.90;99.90;;;;;;4984176;28;20283;-33
2023/09/11 11:09:24;;;;;;;7.40;6.65;;;30.20;99.90;;;;;;4966534;28;20176;-32
2023/09/11 11:11:50;;;;;;;8.93;6.53;;;30.10;99.90;;;;;;4984885;28;20180;-32
2023/09/11 11:14:18;;;;;;;7.05;6.32;;;30.20;99.90;;;;;;4972959;28;20212;-32
2023/09/11 11:17:09;;;;;;;7.00;5.97;;;30.20;99.90;;;;;;4967869;28;20184;-33
2023/09/11 11:19:52;;;;;;;6.70;5.55;;;30.30;99.90;;;;;;4969356;28;20238;-32
2023/09/11 11:22:38;;;;;;;7.82;5.72;;;30.50;99.90;;;;;;5006487;28;20199;-31
2023/09/11 11:25:10;;;;;;;11.15;5.13;;;30.70;99.90;;;;;;4979490;28;20203;-31
2023/09/11 11:27:45;;;;;;;9.50;5.05;;;30.80;99.90;;;;;;4962338;28;20195;-31
2023/09/11 11:30:12;;;;;;;9.30;5.10;;;31.00;99.90;;;;;;4967194;28;20179;-33
2023/09/11 11:32:41;;;;;;;12.25;5.40;;;31.20;99.90;;;;;;4990471;28;20206;-33
2023/09/11 11:35:10;;;;;;;13.25;5.50;;;31.30;99.90;;;;;;4980736;28;20214;-31
2023/09/11 11:37:38;;;;;;;9.07;5.50;;;31.50;99.90;;;;;;4968342;28;20187;-30
2023/09/11 11:40:08;;;;;;;11.10;5.93;;;31.60;99.90;;;;;;4968327;28;20332;-30
2023/09/11 11:42:38;;;;;;;10.18;5.47;;;31.80;99.90;;;;;;4974557;28;20191;-31
2023/09/11 11:45:05;;;;;;;8.70;5.50;;;31.90;99.90;;;;;;4970350;28;20212;-31
2023/09/11 11:47:32;;;;;;;8.55;5.70;;;32.10;99.90;;;;;;4952784;28;20270;-31
2023/09/11 11:50:10;;;;;;;11.63;5.95;;;32.30;99.90;;;;;;4968487;28;20186;-31
2023/09/11 11:52:36;;;;;;;8.95;5.93;;;32.10;99.90;;;;;;4971693;28;20185;-31
2023/09/11 11:55:02;;;;;;;12.93;6.60;;;31.80;99.90;;;;;;4944409;28;20230;-31
2023/09/11 11:57:29;;;;;;;8.93;5.88;;;31.60;99.90;;;;;;4962430;28;20187;-31
2023/09/11 11:59:55;;;;;;;8.60;6.18;;;31.70;99.90;;;;;;4972736;28;20239;-32
2023/09/11 12:02:21;;;;;;;10.30;6.32;;;31.70;99.90;;;;;;4969656;28;20192;-31
2023/09/11 12:04:47;;;;;;;13.18;6.15;;;31.70;99.90;;;;;;4969677;28;20216;-31
2023/09/11 12:07:12;;;;;;;9.63;5.70;;;31.50;99.90;;;;;;4961542;28;20191;-32
2023/09/11 12:09:44;;;;;;;10.57;6.03;;;31.70;99.90;;;;;;4981648;28;20173;-33
2023/09/11 12:12:11;;;;;;;11.10;6.05;;;31.80;99.90;;;;;;4966683;28;20221;-32
2023/09/11 12:14:36;;;;;;;7.55;5.32;;;31.90;99.90;;;;;;4952929;28;20212;-31
2023/09/11 12:17:06;;;;;;;8.30;5.47;;;32.00;99.90;;;;;;4956866;28;20188;-31
2023/09/11 12:19:32;;;;;;;11.45;5.68;;;32.30;99.90;;;;;;4969159;28;20183;-31
2023/09/11 12:21:58;;;;;;;6.68;4.80;;;32.40;99.90;;;;;;4984685;28;20401;-32
2023/09/11 12:24:25;;;;;;;7.22;5.35;;;32.60;99.90;;;;;;4982729;28;20319;-32
2023/09/11 12:26:51;;;;;;;11.98;5.22;;;32.80;99.90;;;;;;4980354;28;20218;-32
2023/09/11 12:29:18;;;;;;;11.52;6.05;;;32.90;99.90;;;;;;4972240;28;20191;-31
2023/09/11 12:31:44;;;;;;;10.15;5.63;;;33.00;99.90;;;;;;4973210;28;20210;-31
2023/09/11 12:34:09;;;;;;;15.05;5.68;;;33.20;99.90;;;;;;4999714;28;20210;-31
2023/09/11 12:36:35;;;;;;;10.63;5.97;;;33.20;99.90;;;;;;4960445;28;20199;-32
2023/09/11 12:39:06;;;;;;;10.38;5.30;;;33.20;99.90;;;;;;4979015;28;20278;-31
2023/09/11 12:41:32;;;;;;;11.07;5.70;;;33.30;99.90;;;;;;4959836;28;20183;-32